Petrovskij Zavod, Russia
Current Conditions -  °F | °C
As of 5:30 PM on Sunday 23 Nov 2014 (Local Time) from UIUU Reporting Station
Few Clouds Few Clouds  
Wind Chill:   Ceiling: Unl
Heat Index:   Visibility: 4mi
Dew Point:   Wind: 2mph
Humidity: 67%   Direction: 80°E
Pressure: 30.15"   Gusts: NA
Location:  51.32°N, 108.87°E
Report Text: UIUU 230830Z 08001MPS 7000 FEW100 M13/M18 Q1021 NOSIG RMKQFE721/0962 26410560
Loading
Personal Weather Stations






























Interactive Weather Map New forecast layout! Learn more

10-Day Weather Forecast

Advertisements
Track Severe Weather on mobile